Currituck — AEFR — position and weather

sailwx.info

Track history (hours):
 
Tides and Currents Weather Stations Pressure Air Temp Water Temp Dewpoint Dewpoint Depression Visibility Wind Speed Wind Dir Waves Ship Positions

Currituck

Last reported at 2017-Apr-10 23:34 UTC. Time now 2017-Apr-30 22:44 UTC.
Position N 28°12' W 080°39'.
Warning: this ship's position is 19 days out of date.

Length 45 m; draft 2 m.

Type: Dredging. MMSI: 369970446.

Date/timePositionNaut miles runAvg speedWind from/ knotsBaromVisibWave heightAir tempDewpointWater temp
2017-Apr-10 23:34N 28°12' W 080°39'0 5.9
2017-Apr-10 23:30N 28°12' W 080°39'4 7.7
2017-Apr-10 23:00N 28°09' W 080°37'98 2.9
2017-Apr-09 12:58N 26°43' W 081°32'4 7.9
2017-Apr-09 12:25N 26°43' W 081°37'3 7.9
2017-Apr-09 12:00N 26°43' W 081°40'2 3.0
2017-Apr-09 11:28N 26°43' W 081°42'3 7.6
2017-Apr-09 11:00N 26°43' W 081°46'4 7.1
2017-Apr-09 10:30N 26°41' W 081°49'4 7.1
2017-Apr-09 10:00N 26°39' W 081°52'0 0.2
2017-Apr-09 09:30N 26°39' W 081°52'0 0.0
2017-Apr-09 09:00N 26°39' W 081°52'0 0.0
2017-Apr-09 08:30N 26°39' W 081°52'0 0.0
2017-Apr-09 08:00N 26°39' W 081°52'0 0.0
2017-Apr-09 07:30N 26°39' W 081°52'0 0.0
2017-Apr-09 07:00N 26°39' W 081°52'0 0.0
2017-Apr-09 06:30N 26°39' W 081°52'0 0.0
2017-Apr-09 06:00N 26°39' W 081°52'1 1.8
2017-Apr-09 05:30N 26°38' W 081°53'3 5.7
2017-Apr-09 05:00N 26°36' W 081°54'3 5.3
2017-Apr-09 04:30N 26°34' W 081°56'3 5.4
2017-Apr-09 04:00N 26°32' W 081°58'3 6.7
2017-Apr-09 03:30N 26°30' W 082°02'3 6.5
2017-Apr-09 03:00N 26°29' W 082°05'3 6.1
2017-Apr-09 02:30N 26°30' W 082°08'4 6.9
2017-Apr-09 01:51N 26°33' W 082°10'5 8.7
2017-Apr-09 01:18N 26°38' W 082°13'4 8.4
2017-Apr-09 00:49N 26°42' W 082°14'  
2017-Apr-05 13:13N 27°28' W 082°41'0 0.0
2017-Apr-05 11:47N 27°28' W 082°41'2 0.9
2017-Apr-05 09:00N 27°30' W 082°41'2 0.1
2017-Apr-04 06:09N 27°28' W 082°42'2 5.2
2017-Apr-04 05:47N 27°26' W 082°41'7 0.2
2017-Apr-02 13:49N 27°33' W 082°43'2 6.7
2017-Apr-02 13:30N 27°32' W 082°42'3 6.3
2017-Apr-02 13:00N 27°28' W 082°42'3 5.1
2017-Apr-02 12:30N 27°26' W 082°40'0 0.0
2017-Apr-02 12:00N 27°26' W 082°40'0 0.2
2017-Apr-02 11:30N 27°26' W 082°40'0 0.2
2017-Apr-02 10:53N 27°26' W 082°40'2 2.5
2017-Apr-02 10:16N 27°28' W 082°41'0 0.9
2017-Apr-02 09:51N 27°28' W 082°41'1 2.8
2017-Apr-02 09:29N 27°29' W 082°42'3 6.8
2017-Apr-02 09:00N 27°32' W 082°42'6 7.2
2017-Apr-02 08:11N 27°36' W 082°47'7 5.6
2017-Apr-02 06:54N 27°31' W 082°41'2 4.4
2017-Apr-02 06:30N 27°29' W 082°42'3 5.4
2017-Apr-02 06:00N 27°26' W 082°41'  
Track history (hours):
 
Tides and Currents Weather Stations Pressure Air Temp Water Temp Dewpoint Dewpoint Depression Visibility Wind Speed Wind Dir Waves Ship Positions

Currituck

Last reported at 2017-Apr-10 23:34 UTC. Time now 2017-Apr-30 22:44 UTC.
Position N 28°12' W 080°39'.
Warning: this ship's position is 19 days out of date.

Length 45 m; draft 2 m.

Type: Dredging. MMSI: 369970446.

Date/timePositionNaut miles runAvg speedWind from/ knotsBaromVisibWave heightAir tempDewpointWater temp
2017-Apr-10 23:34N 28°12' W 080°39'0 5.9
2017-Apr-10 23:30N 28°12' W 080°39'4 7.7
2017-Apr-10 23:00N 28°09' W 080°37'98 2.9
2017-Apr-09 12:58N 26°43' W 081°32'4 7.9
2017-Apr-09 12:25N 26°43' W 081°37'3 7.9
2017-Apr-09 12:00N 26°43' W 081°40'2 3.0
2017-Apr-09 11:28N 26°43' W 081°42'3 7.6
2017-Apr-09 11:00N 26°43' W 081°46'4 7.1
2017-Apr-09 10:30N 26°41' W 081°49'4 7.1
2017-Apr-09 10:00N 26°39' W 081°52'0 0.2
2017-Apr-09 09:30N 26°39' W 081°52'0 0.0
2017-Apr-09 09:00N 26°39' W 081°52'0 0.0
2017-Apr-09 08:30N 26°39' W 081°52'0 0.0
2017-Apr-09 08:00N 26°39' W 081°52'0 0.0
2017-Apr-09 07:30N 26°39' W 081°52'0 0.0
2017-Apr-09 07:00N 26°39' W 081°52'0 0.0
2017-Apr-09 06:30N 26°39' W 081°52'0 0.0
2017-Apr-09 06:00N 26°39' W 081°52'1 1.8
2017-Apr-09 05:30N 26°38' W 081°53'3 5.7
2017-Apr-09 05:00N 26°36' W 081°54'3 5.3
2017-Apr-09 04:30N 26°34' W 081°56'3 5.4
2017-Apr-09 04:00N 26°32' W 081°58'3 6.7
2017-Apr-09 03:30N 26°30' W 082°02'3 6.5
2017-Apr-09 03:00N 26°29' W 082°05'3 6.1
2017-Apr-09 02:30N 26°30' W 082°08'4 6.9
2017-Apr-09 01:51N 26°33' W 082°10'5 8.7
2017-Apr-09 01:18N 26°38' W 082°13'4 8.4
2017-Apr-09 00:49N 26°42' W 082°14'  
2017-Apr-05 13:13N 27°28' W 082°41'0 0.0
2017-Apr-05 11:47N 27°28' W 082°41'2 0.9
2017-Apr-05 09:00N 27°30' W 082°41'2 0.1
2017-Apr-04 06:09N 27°28' W 082°42'2 5.2
2017-Apr-04 05:47N 27°26' W 082°41'7 0.2
2017-Apr-02 13:49N 27°33' W 082°43'2 6.7
2017-Apr-02 13:30N 27°32' W 082°42'3 6.3
2017-Apr-02 13:00N 27°28' W 082°42'3 5.1
2017-Apr-02 12:30N 27°26' W 082°40'0 0.0
2017-Apr-02 12:00N 27°26' W 082°40'0 0.2
2017-Apr-02 11:30N 27°26' W 082°40'0 0.2
2017-Apr-02 10:53N 27°26' W 082°40'2 2.5
2017-Apr-02 10:16N 27°28' W 082°41'0 0.9
2017-Apr-02 09:51N 27°28' W 082°41'1 2.8
2017-Apr-02 09:29N 27°29' W 082°42'3 6.8
2017-Apr-02 09:00N 27°32' W 082°42'6 7.2
2017-Apr-02 08:11N 27°36' W 082°47'7 5.6
2017-Apr-02 06:54N 27°31' W 082°41'2 4.4
2017-Apr-02 06:30N 27°29' W 082°42'3 5.4
2017-Apr-02 06:00N 27°26' W 082°41'  

Dump ship's entire track history